sensor_id;sensor_type;location;lat;lon;timestamp;P1;durP1;ratioP1;P2;durP2;ratioP2
10150;SDS011;5116;52.318;4.644;2022-12-08T00:01:21;0.97;;;0.97;;
10150;SDS011;5116;52.318;4.644;2022-12-08T00:03:48;0.80;;;0.80;;
10150;SDS011;5116;52.318;4.644;2022-12-08T00:09:05;1.03;;;0.90;;
10150;SDS011;5116;52.318;4.644;2022-12-08T00:11:55;0.70;;;0.70;;
10150;SDS011;5116;52.318;4.644;2022-12-08T00:14:23;0.90;;;0.90;;
10150;SDS011;5116;52.318;4.644;2022-12-08T00:16:51;0.90;;;0.90;;
10150;SDS011;5116;52.318;4.644;2022-12-08T00:19:20;1.33;;;1.30;;
10150;SDS011;5116;52.318;4.644;2022-12-08T00:21:47;0.90;;;0.90;;
10150;SDS011;5116;52.318;4.644;2022-12-08T00:24:15;0.90;;;0.90;;
10150;SDS011;5116;52.318;4.644;2022-12-08T00:26:42;0.90;;;0.90;;
10150;SDS011;5116;52.318;4.644;2022-12-08T00:29:10;0.80;;;0.80;;
10150;SDS011;5116;52.318;4.644;2022-12-08T00:31:42;0.90;;;0.90;;
10150;SDS011;5116;52.318;4.644;2022-12-08T00:34:11;0.80;;;0.80;;
10150;SDS011;5116;52.318;4.644;2022-12-08T00:36:39;0.90;;;0.90;;
10150;SDS011;5116;52.318;4.644;2022-12-08T00:39:06;1.33;;;0.83;;
10150;SDS011;5116;52.318;4.644;2022-12-08T00:41:34;0.90;;;0.90;;
10150;SDS011;5116;52.318;4.644;2022-12-08T00:44:20;0.80;;;0.80;;
10150;SDS011;5116;52.318;4.644;2022-12-08T00:46:47;0.90;;;0.90;;
10150;SDS011;5116;52.318;4.644;2022-12-08T00:49:15;0.90;;;0.90;;
10150;SDS011;5116;52.318;4.644;2022-12-08T00:51:43;0.70;;;0.70;;
10150;SDS011;5116;52.318;4.644;2022-12-08T00:54:10;0.80;;;0.80;;
10150;SDS011;5116;52.318;4.644;2022-12-08T00:56:38;0.90;;;0.90;;
10150;SDS011;5116;52.318;4.644;2022-12-08T00:59:06;0.90;;;0.90;;
10150;SDS011;5116;52.318;4.644;2022-12-08T01:01:34;0.80;;;0.80;;
10150;SDS011;5116;52.318;4.644;2022-12-08T01:04:06;0.80;;;0.80;;
10150;SDS011;5116;52.318;4.644;2022-12-08T01:06:36;0.93;;;0.93;;
10150;SDS011;5116;52.318;4.644;2022-12-08T01:09:04;0.80;;;0.80;;
10150;SDS011;5116;52.318;4.644;2022-12-08T01:11:32;0.80;;;0.80;;
10150;SDS011;5116;52.318;4.644;2022-12-08T01:14:00;0.80;;;0.80;;
10150;SDS011;5116;52.318;4.644;2022-12-08T01:16:28;0.87;;;0.87;;
10150;SDS011;5116;52.318;4.644;2022-12-08T01:18:56;0.83;;;0.83;;
10150;SDS011;5116;52.318;4.644;2022-12-08T01:21:24;1.00;;;1.00;;
10150;SDS011;5116;52.318;4.644;2022-12-08T01:23:52;0.80;;;0.80;;
10150;SDS011;5116;52.318;4.644;2022-12-08T01:26:20;0.80;;;0.80;;
10150;SDS011;5116;52.318;4.644;2022-12-08T01:28:47;0.80;;;0.80;;
10150;SDS011;5116;52.318;4.644;2022-12-08T01:31:16;0.80;;;0.80;;
10150;SDS011;5116;52.318;4.644;2022-12-08T01:33:44;1.70;;;0.90;;
10150;SDS011;5116;52.318;4.644;2022-12-08T01:38:45;1.07;;;0.90;;
10150;SDS011;5116;52.318;4.644;2022-12-08T01:41:13;0.80;;;0.80;;
10150;SDS011;5116;52.318;4.644;2022-12-08T01:46:34;1.00;;;1.00;;
10150;SDS011;5116;52.318;4.644;2022-12-08T01:51:53;0.90;;;0.90;;
10150;SDS011;5116;52.318;4.644;2022-12-08T01:54:21;0.80;;;0.80;;
10150;SDS011;5116;52.318;4.644;2022-12-08T01:56:55;0.90;;;0.90;;
10150;SDS011;5116;52.318;4.644;2022-12-08T01:59:24;0.70;;;0.70;;
10150;SDS011;5116;52.318;4.644;2022-12-08T02:01:52;0.90;;;0.90;;
10150;SDS011;5116;52.318;4.644;2022-12-08T02:04:20;0.80;;;0.80;;
10150;SDS011;5116;52.318;4.644;2022-12-08T02:06:47;1.13;;;1.03;;
10150;SDS011;5116;52.318;4.644;2022-12-08T02:09:15;0.80;;;0.80;;
10150;SDS011;5116;52.318;4.644;2022-12-08T02:11:43;0.97;;;0.97;;
10150;SDS011;5116;52.318;4.644;2022-12-08T02:14:10;0.80;;;0.80;;
10150;SDS011;5116;52.318;4.644;2022-12-08T02:21:58;0.77;;;0.77;;
10150;SDS011;5116;52.318;4.644;2022-12-08T02:32:21;0.80;;;0.80;;
10150;SDS011;5116;52.318;4.644;2022-12-08T02:37:38;3.53;;;1.00;;
10150;SDS011;5116;52.318;4.644;2022-12-08T02:42:43;1.23;;;1.23;;
10150;SDS011;5116;52.318;4.644;2022-12-08T02:45:14;0.80;;;0.80;;
10150;SDS011;5116;52.318;4.644;2022-12-08T02:47:43;1.10;;;1.10;;
10150;SDS011;5116;52.318;4.644;2022-12-08T02:50:11;0.80;;;0.80;;
10150;SDS011;5116;52.318;4.644;2022-12-08T02:52:42;0.80;;;0.80;;
10150;SDS011;5116;52.318;4.644;2022-12-08T03:00:24;0.87;;;0.87;;
10150;SDS011;5116;52.318;4.644;2022-12-08T03:08:20;0.80;;;0.80;;
10150;SDS011;5116;52.318;4.644;2022-12-08T03:10:50;0.80;;;0.80;;
10150;SDS011;5116;52.318;4.644;2022-12-08T03:13:20;0.90;;;0.90;;
10150;SDS011;5116;52.318;4.644;2022-12-08T03:15:49;0.80;;;0.80;;
10150;SDS011;5116;52.318;4.644;2022-12-08T03:18:18;0.80;;;0.80;;
10150;SDS011;5116;52.318;4.644;2022-12-08T03:20:47;0.80;;;0.80;;
10150;SDS011;5116;52.318;4.644;2022-12-08T03:23:15;0.80;;;0.80;;
10150;SDS011;5116;52.318;4.644;2022-12-08T03:25:50;0.80;;;0.80;;
10150;SDS011;5116;52.318;4.644;2022-12-08T03:28:20;0.80;;;0.80;;
10150;SDS011;5116;52.318;4.644;2022-12-08T03:30:48;0.70;;;0.70;;
10150;SDS011;5116;52.318;4.644;2022-12-08T03:33:19;0.80;;;0.80;;
10150;SDS011;5116;52.318;4.644;2022-12-08T03:35:48;0.80;;;0.80;;
10150;SDS011;5116;52.318;4.644;2022-12-08T03:38:16;0.77;;;0.77;;
10150;SDS011;5116;52.318;4.644;2022-12-08T03:40:43;0.80;;;0.80;;
10150;SDS011;5116;52.318;4.644;2022-12-08T03:43:31;0.80;;;0.80;;
10150;SDS011;5116;52.318;4.644;2022-12-08T03:45:58;0.80;;;0.80;;
10150;SDS011;5116;52.318;4.644;2022-12-08T03:48:26;0.80;;;0.80;;
10150;SDS011;5116;52.318;4.644;2022-12-08T03:50:53;0.90;;;0.90;;
10150;SDS011;5116;52.318;4.644;2022-12-08T03:53:20;0.70;;;0.70;;
10150;SDS011;5116;52.318;4.644;2022-12-08T03:55:48;0.93;;;0.93;;
10150;SDS011;5116;52.318;4.644;2022-12-08T03:58:15;0.87;;;0.87;;
10150;SDS011;5116;52.318;4.644;2022-12-08T04:00:43;0.77;;;0.77;;
10150;SDS011;5116;52.318;4.644;2022-12-08T04:03:10;0.80;;;0.80;;
10150;SDS011;5116;52.318;4.644;2022-12-08T04:05:38;0.80;;;0.80;;
10150;SDS011;5116;52.318;4.644;2022-12-08T04:08:05;0.70;;;0.70;;
10150;SDS011;5116;52.318;4.644;2022-12-08T04:10:32;0.80;;;0.80;;
10150;SDS011;5116;52.318;4.644;2022-12-08T04:13:00;0.70;;;0.70;;
10150;SDS011;5116;52.318;4.644;2022-12-08T04:15:27;1.00;;;1.00;;
10150;SDS011;5116;52.318;4.644;2022-12-08T04:17:54;0.80;;;0.80;;
10150;SDS011;5116;52.318;4.644;2022-12-08T04:20:22;0.80;;;0.80;;
10150;SDS011;5116;52.318;4.644;2022-12-08T04:22:49;0.80;;;0.80;;
10150;SDS011;5116;52.318;4.644;2022-12-08T04:25:16;0.87;;;0.87;;
10150;SDS011;5116;52.318;4.644;2022-12-08T04:27:44;0.80;;;0.80;;
10150;SDS011;5116;52.318;4.644;2022-12-08T04:30:11;0.80;;;0.80;;
10150;SDS011;5116;52.318;4.644;2022-12-08T04:32:38;0.90;;;0.90;;
10150;SDS011;5116;52.318;4.644;2022-12-08T04:35:12;0.80;;;0.80;;
10150;SDS011;5116;52.318;4.644;2022-12-08T04:37:40;0.80;;;0.80;;
10150;SDS011;5116;52.318;4.644;2022-12-08T04:40:09;0.80;;;0.80;;
10150;SDS011;5116;52.318;4.644;2022-12-08T04:42:36;0.70;;;0.70;;
10150;SDS011;5116;52.318;4.644;2022-12-08T04:45:04;0.80;;;0.80;;
10150;SDS011;5116;52.318;4.644;2022-12-08T04:47:31;0.80;;;0.80;;
10150;SDS011;5116;52.318;4.644;2022-12-08T04:49:59;0.80;;;0.80;;
10150;SDS011;5116;52.318;4.644;2022-12-08T04:52:26;0.70;;;0.70;;
10150;SDS011;5116;52.318;4.644;2022-12-08T04:54:54;0.77;;;0.77;;
10150;SDS011;5116;52.318;4.644;2022-12-08T04:57:21;0.63;;;0.63;;
10150;SDS011;5116;52.318;4.644;2022-12-08T04:59:48;0.87;;;0.87;;
10150;SDS011;5116;52.318;4.644;2022-12-08T05:02:16;0.70;;;0.70;;
10150;SDS011;5116;52.318;4.644;2022-12-08T05:04:43;0.70;;;0.70;;
10150;SDS011;5116;52.318;4.644;2022-12-08T05:07:11;0.70;;;0.70;;
10150;SDS011;5116;52.318;4.644;2022-12-08T05:09:38;0.80;;;0.80;;
10150;SDS011;5116;52.318;4.644;2022-12-08T05:12:05;0.80;;;0.80;;
10150;SDS011;5116;52.318;4.644;2022-12-08T05:14:33;0.80;;;0.80;;
10150;SDS011;5116;52.318;4.644;2022-12-08T05:17:00;0.73;;;0.73;;
10150;SDS011;5116;52.318;4.644;2022-12-08T05:19:34;0.60;;;0.60;;
10150;SDS011;5116;52.318;4.644;2022-12-08T05:22:02;0.90;;;0.90;;
10150;SDS011;5116;52.318;4.644;2022-12-08T05:24:29;0.70;;;0.70;;
10150;SDS011;5116;52.318;4.644;2022-12-08T05:26:57;0.70;;;0.70;;
10150;SDS011;5116;52.318;4.644;2022-12-08T05:29:24;0.80;;;0.80;;
10150;SDS011;5116;52.318;4.644;2022-12-08T05:31:52;1.10;;;1.10;;
10150;SDS011;5116;52.318;4.644;2022-12-08T05:34:19;0.70;;;0.70;;
10150;SDS011;5116;52.318;4.644;2022-12-08T05:36:47;0.77;;;0.77;;
10150;SDS011;5116;52.318;4.644;2022-12-08T05:39:14;0.70;;;0.70;;
10150;SDS011;5116;52.318;4.644;2022-12-08T05:41:41;0.80;;;0.80;;
10150;SDS011;5116;52.318;4.644;2022-12-08T05:44:09;0.80;;;0.80;;
10150;SDS011;5116;52.318;4.644;2022-12-08T05:46:36;0.70;;;0.70;;
10150;SDS011;5116;52.318;4.644;2022-12-08T05:49:04;0.90;;;0.90;;
10150;SDS011;5116;52.318;4.644;2022-12-08T05:51:31;0.70;;;0.70;;
10150;SDS011;5116;52.318;4.644;2022-12-08T05:53:59;0.80;;;0.80;;
10150;SDS011;5116;52.318;4.644;2022-12-08T05:56:29;0.70;;;0.70;;
10150;SDS011;5116;52.318;4.644;2022-12-08T05:58:57;0.90;;;0.90;;
10150;SDS011;5116;52.318;4.644;2022-12-08T06:03:53;1.00;;;1.00;;
10150;SDS011;5116;52.318;4.644;2022-12-08T06:06:20;0.80;;;0.80;;
10150;SDS011;5116;52.318;4.644;2022-12-08T06:08:48;0.70;;;0.70;;
10150;SDS011;5116;52.318;4.644;2022-12-08T06:13:46;0.80;;;0.80;;
10150;SDS011;5116;52.318;4.644;2022-12-08T06:16:13;1.10;;;1.10;;
10150;SDS011;5116;52.318;4.644;2022-12-08T06:18:41;0.80;;;0.80;;
10150;SDS011;5116;52.318;4.644;2022-12-08T06:21:09;0.90;;;0.90;;
10150;SDS011;5116;52.318;4.644;2022-12-08T06:23:36;0.70;;;0.70;;
10150;SDS011;5116;52.318;4.644;2022-12-08T06:26:05;0.80;;;0.80;;
10150;SDS011;5116;52.318;4.644;2022-12-08T06:28:33;0.80;;;0.80;;
10150;SDS011;5116;52.318;4.644;2022-12-08T06:31:05;0.80;;;0.80;;
10150;SDS011;5116;52.318;4.644;2022-12-08T06:33:33;0.80;;;0.80;;
10150;SDS011;5116;52.318;4.644;2022-12-08T06:36:00;0.70;;;0.70;;
10150;SDS011;5116;52.318;4.644;2022-12-08T06:38:28;0.80;;;0.80;;
10150;SDS011;5116;52.318;4.644;2022-12-08T06:40:56;0.70;;;0.70;;
10150;SDS011;5116;52.318;4.644;2022-12-08T06:43:24;0.90;;;0.90;;
10150;SDS011;5116;52.318;4.644;2022-12-08T06:45:51;0.70;;;0.70;;
10150;SDS011;5116;52.318;4.644;2022-12-08T06:48:19;0.80;;;0.80;;
10150;SDS011;5116;52.318;4.644;2022-12-08T06:50:46;0.70;;;0.70;;
10150;SDS011;5116;52.318;4.644;2022-12-08T06:53:14;0.80;;;0.80;;
10150;SDS011;5116;52.318;4.644;2022-12-08T06:55:45;0.80;;;0.80;;
10150;SDS011;5116;52.318;4.644;2022-12-08T06:58:28;0.80;;;0.80;;
10150;SDS011;5116;52.318;4.644;2022-12-08T07:00:55;0.80;;;0.80;;
10150;SDS011;5116;52.318;4.644;2022-12-08T07:03:23;0.80;;;0.80;;
10150;SDS011;5116;52.318;4.644;2022-12-08T07:05:54;0.70;;;0.70;;
10150;SDS011;5116;52.318;4.644;2022-12-08T07:08:28;0.70;;;0.70;;
10150;SDS011;5116;52.318;4.644;2022-12-08T07:10:56;0.70;;;0.70;;
10150;SDS011;5116;52.318;4.644;2022-12-08T07:13:24;0.80;;;0.80;;
10150;SDS011;5116;52.318;4.644;2022-12-08T07:15:51;0.80;;;0.80;;
10150;SDS011;5116;52.318;4.644;2022-12-08T07:18:18;0.70;;;0.70;;
10150;SDS011;5116;52.318;4.644;2022-12-08T07:20:48;0.80;;;0.80;;
10150;SDS011;5116;52.318;4.644;2022-12-08T07:23:15;0.80;;;0.80;;
10150;SDS011;5116;52.318;4.644;2022-12-08T07:25:42;0.70;;;0.70;;
10150;SDS011;5116;52.318;4.644;2022-12-08T07:28:10;0.80;;;0.80;;
10150;SDS011;5116;52.318;4.644;2022-12-08T07:30:37;0.90;;;0.90;;
10150;SDS011;5116;52.318;4.644;2022-12-08T07:33:05;0.80;;;0.80;;
10150;SDS011;5116;52.318;4.644;2022-12-08T07:35:32;0.80;;;0.80;;
10150;SDS011;5116;52.318;4.644;2022-12-08T07:38:00;0.80;;;0.80;;
10150;SDS011;5116;52.318;4.644;2022-12-08T07:40:28;0.77;;;0.77;;
10150;SDS011;5116;52.318;4.644;2022-12-08T07:42:55;0.80;;;0.80;;
10150;SDS011;5116;52.318;4.644;2022-12-08T07:45:23;0.90;;;0.90;;
10150;SDS011;5116;52.318;4.644;2022-12-08T07:47:57;0.80;;;0.80;;
10150;SDS011;5116;52.318;4.644;2022-12-08T07:50:24;0.70;;;0.70;;
10150;SDS011;5116;52.318;4.644;2022-12-08T07:52:51;0.73;;;0.73;;
10150;SDS011;5116;52.318;4.644;2022-12-08T07:55:19;0.70;;;0.70;;
10150;SDS011;5116;52.318;4.644;2022-12-08T07:57:46;0.70;;;0.70;;
10150;SDS011;5116;52.318;4.644;2022-12-08T08:00:14;0.90;;;0.90;;
10150;SDS011;5116;52.318;4.644;2022-12-08T08:02:41;0.90;;;0.90;;
10150;SDS011;5116;52.318;4.644;2022-12-08T08:05:09;0.80;;;0.80;;
10150;SDS011;5116;52.318;4.644;2022-12-08T08:07:38;0.80;;;0.80;;
10150;SDS011;5116;52.318;4.644;2022-12-08T08:10:08;0.80;;;0.80;;
10150;SDS011;5116;52.318;4.644;2022-12-08T08:12:36;0.80;;;0.80;;
10150;SDS011;5116;52.318;4.644;2022-12-08T08:15:04;0.70;;;0.70;;
10150;SDS011;5116;52.318;4.644;2022-12-08T08:17:33;0.80;;;0.80;;
10150;SDS011;5116;52.318;4.644;2022-12-08T08:20:01;0.80;;;0.80;;
10150;SDS011;5116;52.318;4.644;2022-12-08T08:22:29;0.93;;;0.93;;
10150;SDS011;5116;52.318;4.644;2022-12-08T08:24:56;0.80;;;0.80;;
10150;SDS011;5116;52.318;4.644;2022-12-08T08:27:24;0.80;;;0.80;;
10150;SDS011;5116;52.318;4.644;2022-12-08T08:29:52;0.90;;;0.90;;
10150;SDS011;5116;52.318;4.644;2022-12-08T08:32:19;0.90;;;0.90;;
10150;SDS011;5116;52.318;4.644;2022-12-08T08:34:47;0.90;;;0.90;;
10150;SDS011;5116;52.318;4.644;2022-12-08T08:37:14;0.83;;;0.83;;
10150;SDS011;5116;52.318;4.644;2022-12-08T08:39:41;0.90;;;0.90;;
10150;SDS011;5116;52.318;4.644;2022-12-08T08:42:09;0.90;;;0.90;;
10150;SDS011;5116;52.318;4.644;2022-12-08T08:44:36;0.90;;;0.90;;
10150;SDS011;5116;52.318;4.644;2022-12-08T08:47:04;0.80;;;0.80;;
10150;SDS011;5116;52.318;4.644;2022-12-08T08:49:31;0.80;;;0.80;;
10150;SDS011;5116;52.318;4.644;2022-12-08T08:51:59;0.80;;;0.80;;
10150;SDS011;5116;52.318;4.644;2022-12-08T08:54:29;0.80;;;0.80;;
10150;SDS011;5116;52.318;4.644;2022-12-08T08:56:57;1.20;;;1.20;;
10150;SDS011;5116;52.318;4.644;2022-12-08T08:59:26;0.90;;;0.90;;
10150;SDS011;5116;52.318;4.644;2022-12-08T09:01:54;0.90;;;0.90;;
10150;SDS011;5116;52.318;4.644;2022-12-08T09:04:22;0.80;;;0.80;;
10150;SDS011;5116;52.318;4.644;2022-12-08T09:06:51;0.80;;;0.80;;
10150;SDS011;5116;52.318;4.644;2022-12-08T09:09:18;0.80;;;0.80;;
10150;SDS011;5116;52.318;4.644;2022-12-08T09:11:46;0.87;;;0.87;;
10150;SDS011;5116;52.318;4.644;2022-12-08T09:14:13;0.90;;;0.90;;
10150;SDS011;5116;52.318;4.644;2022-12-08T09:16:41;0.90;;;0.90;;
10150;SDS011;5116;52.318;4.644;2022-12-08T09:19:09;0.80;;;0.80;;
10150;SDS011;5116;52.318;4.644;2022-12-08T09:21:36;0.90;;;0.90;;
10150;SDS011;5116;52.318;4.644;2022-12-08T09:24:05;0.80;;;0.80;;
10150;SDS011;5116;52.318;4.644;2022-12-08T09:26:36;1.03;;;0.93;;
10150;SDS011;5116;52.318;4.644;2022-12-08T09:29:05;0.80;;;0.80;;
10150;SDS011;5116;52.318;4.644;2022-12-08T09:31:33;0.90;;;0.90;;
10150;SDS011;5116;52.318;4.644;2022-12-08T09:34:00;0.80;;;0.80;;
10150;SDS011;5116;52.318;4.644;2022-12-08T09:36:30;0.80;;;0.80;;
10150;SDS011;5116;52.318;4.644;2022-12-08T09:38:57;0.90;;;0.90;;
10150;SDS011;5116;52.318;4.644;2022-12-08T09:41:32;0.80;;;0.80;;
10150;SDS011;5116;52.318;4.644;2022-12-08T09:46:53;0.80;;;0.80;;
10150;SDS011;5116;52.318;4.644;2022-12-08T09:49:22;0.80;;;0.80;;
10150;SDS011;5116;52.318;4.644;2022-12-08T09:51:54;1.00;;;1.00;;
10150;SDS011;5116;52.318;4.644;2022-12-08T09:54:28;0.90;;;0.90;;
10150;SDS011;5116;52.318;4.644;2022-12-08T09:56:57;0.90;;;0.90;;
10150;SDS011;5116;52.318;4.644;2022-12-08T09:59:28;0.90;;;0.90;;
10150;SDS011;5116;52.318;4.644;2022-12-08T10:01:57;0.80;;;0.80;;
10150;SDS011;5116;52.318;4.644;2022-12-08T10:04:30;0.90;;;0.90;;
10150;SDS011;5116;52.318;4.644;2022-12-08T10:06:59;0.90;;;0.90;;
10150;SDS011;5116;52.318;4.644;2022-12-08T10:12:10;0.90;;;0.90;;
10150;SDS011;5116;52.318;4.644;2022-12-08T10:17:12;1.10;;;1.00;;
10150;SDS011;5116;52.318;4.644;2022-12-08T10:19:41;1.00;;;1.00;;
10150;SDS011;5116;52.318;4.644;2022-12-08T10:22:25;1.63;;;1.00;;
10150;SDS011;5116;52.318;4.644;2022-12-08T10:24:56;1.30;;;1.10;;
10150;SDS011;5116;52.318;4.644;2022-12-08T10:27:26;1.00;;;1.00;;
10150;SDS011;5116;52.318;4.644;2022-12-08T10:29:53;0.90;;;0.90;;
10150;SDS011;5116;52.318;4.644;2022-12-08T10:32:21;0.90;;;0.90;;
10150;SDS011;5116;52.318;4.644;2022-12-08T10:35:02;1.00;;;1.00;;
10150;SDS011;5116;52.318;4.644;2022-12-08T10:37:29;1.10;;;1.07;;
10150;SDS011;5116;52.318;4.644;2022-12-08T10:40:13;1.17;;;1.17;;
10150;SDS011;5116;52.318;4.644;2022-12-08T10:42:46;1.30;;;1.20;;
10150;SDS011;5116;52.318;4.644;2022-12-08T10:47:41;1.00;;;1.00;;
10150;SDS011;5116;52.318;4.644;2022-12-08T10:50:22;1.00;;;1.00;;
10150;SDS011;5116;52.318;4.644;2022-12-08T10:53:12;1.00;;;1.00;;
10150;SDS011;5116;52.318;4.644;2022-12-08T10:55:39;0.90;;;0.90;;
10150;SDS011;5116;52.318;4.644;2022-12-08T10:58:23;0.90;;;0.90;;
10150;SDS011;5116;52.318;4.644;2022-12-08T11:00:51;1.00;;;1.00;;
10150;SDS011;5116;52.318;4.644;2022-12-08T11:03:24;0.90;;;0.90;;
10150;SDS011;5116;52.318;4.644;2022-12-08T11:05:54;1.97;;;1.87;;
10150;SDS011;5116;52.318;4.644;2022-12-08T11:08:21;0.80;;;0.80;;
10150;SDS011;5116;52.318;4.644;2022-12-08T11:10:49;0.90;;;0.90;;
10150;SDS011;5116;52.318;4.644;2022-12-08T11:13:24;0.90;;;0.90;;
10150;SDS011;5116;52.318;4.644;2022-12-08T11:15:55;0.80;;;0.80;;
10150;SDS011;5116;52.318;4.644;2022-12-08T11:18:25;0.90;;;0.90;;
10150;SDS011;5116;52.318;4.644;2022-12-08T11:21:10;0.90;;;0.90;;
10150;SDS011;5116;52.318;4.644;2022-12-08T11:23:40;1.03;;;1.03;;
10150;SDS011;5116;52.318;4.644;2022-12-08T11:28:44;1.00;;;0.97;;
10150;SDS011;5116;52.318;4.644;2022-12-08T11:31:16;0.90;;;0.90;;
10150;SDS011;5116;52.318;4.644;2022-12-08T11:33:46;0.90;;;0.90;;
10150;SDS011;5116;52.318;4.644;2022-12-08T11:36:14;1.00;;;1.00;;
10150;SDS011;5116;52.318;4.644;2022-12-08T11:38:43;1.00;;;1.00;;
10150;SDS011;5116;52.318;4.644;2022-12-08T11:41:16;0.90;;;0.90;;
10150;SDS011;5116;52.318;4.644;2022-12-08T11:44:05;0.80;;;0.80;;
10150;SDS011;5116;52.318;4.644;2022-12-08T11:46:39;0.80;;;0.80;;
10150;SDS011;5116;52.318;4.644;2022-12-08T11:49:09;0.97;;;0.97;;
10150;SDS011;5116;52.318;4.644;2022-12-08T11:51:52;0.80;;;0.80;;
10150;SDS011;5116;52.318;4.644;2022-12-08T11:54:25;0.80;;;0.80;;
10150;SDS011;5116;52.318;4.644;2022-12-08T11:56:54;1.10;;;1.10;;
10150;SDS011;5116;52.318;4.644;2022-12-08T11:59:35;0.83;;;0.83;;
10150;SDS011;5116;52.318;4.644;2022-12-08T12:02:04;0.90;;;0.90;;
10150;SDS011;5116;52.318;4.644;2022-12-08T12:04:35;0.90;;;0.90;;
10150;SDS011;5116;52.318;4.644;2022-12-08T12:17:56;0.90;;;0.90;;
10150;SDS011;5116;52.318;4.644;2022-12-08T12:20:36;0.87;;;0.87;;
10150;SDS011;5116;52.318;4.644;2022-12-08T12:25:54;1.00;;;1.00;;
10150;SDS011;5116;52.318;4.644;2022-12-08T12:28:23;0.80;;;0.80;;
10150;SDS011;5116;52.318;4.644;2022-12-08T12:33:22;0.90;;;0.90;;
10150;SDS011;5116;52.318;4.644;2022-12-08T12:35:50;0.90;;;0.90;;
10150;SDS011;5116;52.318;4.644;2022-12-08T12:41:10;0.80;;;0.80;;
10150;SDS011;5116;52.318;4.644;2022-12-08T12:43:38;0.80;;;0.80;;
10150;SDS011;5116;52.318;4.644;2022-12-08T12:48:51;0.80;;;0.80;;
10150;SDS011;5116;52.318;4.644;2022-12-08T13:02:22;0.90;;;0.90;;
10150;SDS011;5116;52.318;4.644;2022-12-08T13:04:58;1.07;;;1.07;;
10150;SDS011;5116;52.318;4.644;2022-12-08T13:07:30;0.80;;;0.80;;
10150;SDS011;5116;52.318;4.644;2022-12-08T13:12:43;0.80;;;0.80;;
10150;SDS011;5116;52.318;4.644;2022-12-08T13:15:18;0.80;;;0.80;;
10150;SDS011;5116;52.318;4.644;2022-12-08T13:17:46;0.90;;;0.90;;
10150;SDS011;5116;52.318;4.644;2022-12-08T13:20:21;0.93;;;0.93;;
10150;SDS011;5116;52.318;4.644;2022-12-08T13:28:39;0.90;;;0.90;;
10150;SDS011;5116;52.318;4.644;2022-12-08T13:31:00;1.00;;;1.00;;
10150;SDS011;5116;52.318;4.644;2022-12-08T13:33:29;0.80;;;0.80;;
10150;SDS011;5116;52.318;4.644;2022-12-08T13:36:41;0.90;;;0.90;;
10150;SDS011;5116;52.318;4.644;2022-12-08T13:38:47;1.00;;;1.00;;
10150;SDS011;5116;52.318;4.644;2022-12-08T13:41:19;0.90;;;0.90;;
10150;SDS011;5116;52.318;4.644;2022-12-08T13:43:53;0.90;;;0.90;;
10150;SDS011;5116;52.318;4.644;2022-12-08T13:46:45;0.80;;;0.80;;
10150;SDS011;5116;52.318;4.644;2022-12-08T13:49:36;0.80;;;0.80;;
10150;SDS011;5116;52.318;4.644;2022-12-08T13:55:25;0.80;;;0.80;;
10150;SDS011;5116;52.318;4.644;2022-12-08T13:58:15;0.80;;;0.80;;
10150;SDS011;5116;52.318;4.644;2022-12-08T14:00:42;0.90;;;0.90;;
10150;SDS011;5116;52.318;4.644;2022-12-08T14:03:10;1.20;;;1.10;;
10150;SDS011;5116;52.318;4.644;2022-12-08T14:05:39;0.80;;;0.80;;
10150;SDS011;5116;52.318;4.644;2022-12-08T14:08:28;0.90;;;0.90;;
10150;SDS011;5116;52.318;4.644;2022-12-08T14:11:35;1.03;;;1.00;;
10150;SDS011;5116;52.318;4.644;2022-12-08T14:14:07;0.97;;;0.97;;
10150;SDS011;5116;52.318;4.644;2022-12-08T14:16:47;0.97;;;0.97;;
10150;SDS011;5116;52.318;4.644;2022-12-08T14:19:19;0.97;;;0.97;;
10150;SDS011;5116;52.318;4.644;2022-12-08T14:21:50;1.17;;;1.07;;
10150;SDS011;5116;52.318;4.644;2022-12-08T14:24:18;0.90;;;0.90;;
10150;SDS011;5116;52.318;4.644;2022-12-08T14:26:45;0.90;;;0.90;;
10150;SDS011;5116;52.318;4.644;2022-12-08T14:29:18;0.90;;;0.90;;
10150;SDS011;5116;52.318;4.644;2022-12-08T14:31:52;0.93;;;0.93;;
10150;SDS011;5116;52.318;4.644;2022-12-08T14:34:19;0.87;;;0.87;;
10150;SDS011;5116;52.318;4.644;2022-12-08T14:36:47;0.90;;;0.90;;
10150;SDS011;5116;52.318;4.644;2022-12-08T14:39:14;0.80;;;0.80;;
10150;SDS011;5116;52.318;4.644;2022-12-08T14:41:57;1.10;;;1.00;;
10150;SDS011;5116;52.318;4.644;2022-12-08T14:44:24;0.93;;;0.93;;
10150;SDS011;5116;52.318;4.644;2022-12-08T14:47:02;1.50;;;1.00;;
10150;SDS011;5116;52.318;4.644;2022-12-08T14:49:36;0.93;;;0.93;;
10150;SDS011;5116;52.318;4.644;2022-12-08T14:52:07;1.00;;;1.00;;
10150;SDS011;5116;52.318;4.644;2022-12-08T14:54:35;0.90;;;0.90;;
10150;SDS011;5116;52.318;4.644;2022-12-08T14:57:03;1.00;;;1.00;;
10150;SDS011;5116;52.318;4.644;2022-12-08T14:59:35;1.00;;;1.00;;
10150;SDS011;5116;52.318;4.644;2022-12-08T15:04:47;0.87;;;0.87;;
10150;SDS011;5116;52.318;4.644;2022-12-08T15:07:16;1.00;;;1.00;;
10150;SDS011;5116;52.318;4.644;2022-12-08T15:09:45;0.77;;;0.77;;
10150;SDS011;5116;52.318;4.644;2022-12-08T15:14:42;1.00;;;1.00;;
10150;SDS011;5116;52.318;4.644;2022-12-08T15:17:33;2.17;;;1.10;;
10150;SDS011;5116;52.318;4.644;2022-12-08T15:20:01;0.90;;;0.90;;
10150;SDS011;5116;52.318;4.644;2022-12-08T15:22:30;1.23;;;1.10;;
10150;SDS011;5116;52.318;4.644;2022-12-08T15:24:57;1.00;;;1.00;;
10150;SDS011;5116;52.318;4.644;2022-12-08T15:27:26;0.90;;;0.90;;
10150;SDS011;5116;52.318;4.644;2022-12-08T15:29:53;1.00;;;1.00;;
10150;SDS011;5116;52.318;4.644;2022-12-08T15:32:21;1.10;;;1.10;;
10150;SDS011;5116;52.318;4.644;2022-12-08T15:34:49;1.07;;;1.07;;
10150;SDS011;5116;52.318;4.644;2022-12-08T15:37:23;0.97;;;0.97;;
10150;SDS011;5116;52.318;4.644;2022-12-08T15:39:51;1.10;;;1.10;;
10150;SDS011;5116;52.318;4.644;2022-12-08T15:55:17;1.10;;;1.10;;
10150;SDS011;5116;52.318;4.644;2022-12-08T15:57:55;0.80;;;0.80;;
10150;SDS011;5116;52.318;4.644;2022-12-08T16:01:15;1.13;;;1.13;;
10150;SDS011;5116;52.318;4.644;2022-12-08T16:32:11;1.10;;;1.10;;
10150;SDS011;5116;52.318;4.644;2022-12-08T16:35:34;1.50;;;1.40;;
10150;SDS011;5116;52.318;4.644;2022-12-08T16:39:32;1.10;;;1.10;;
10150;SDS011;5116;52.318;4.644;2022-12-08T16:46:21;1.50;;;1.40;;
10150;SDS011;5116;52.318;4.644;2022-12-08T16:49:35;1.00;;;1.00;;
10150;SDS011;5116;52.318;4.644;2022-12-08T19:32:28;1.60;;;1.50;;
10150;SDS011;5116;52.318;4.644;2022-12-08T19:34:56;2.37;;;2.17;;
10150;SDS011;5116;52.318;4.644;2022-12-08T19:37:23;1.87;;;1.70;;
10150;SDS011;5116;52.318;4.644;2022-12-08T19:39:51;2.00;;;1.90;;
10150;SDS011;5116;52.318;4.644;2022-12-08T19:42:37;3.23;;;2.03;;
10150;SDS011;5116;52.318;4.644;2022-12-08T19:45:22;2.43;;;2.00;;
10150;SDS011;5116;52.318;4.644;2022-12-08T19:47:50;1.90;;;1.80;;
10150;SDS011;5116;52.318;4.644;2022-12-08T19:50:17;2.03;;;1.77;;
10150;SDS011;5116;52.318;4.644;2022-12-08T19:53:08;2.03;;;1.93;;
10150;SDS011;5116;52.318;4.644;2022-12-08T19:55:35;1.83;;;1.60;;
10150;SDS011;5116;52.318;4.644;2022-12-08T19:58:03;2.47;;;2.10;;
10150;SDS011;5116;52.318;4.644;2022-12-08T20:22:10;3.30;;;1.90;;
10150;SDS011;5116;52.318;4.644;2022-12-08T20:25:53;3.00;;;2.20;;
10150;SDS011;5116;52.318;4.644;2022-12-08T20:32:09;2.40;;;2.20;;
10150;SDS011;5116;52.318;4.644;2022-12-08T20:34:49;2.07;;;1.80;;
10150;SDS011;5116;52.318;4.644;2022-12-08T20:37:31;2.30;;;2.10;;
10150;SDS011;5116;52.318;4.644;2022-12-08T20:40:23;2.17;;;2.07;;
10150;SDS011;5116;52.318;4.644;2022-12-08T20:44:29;2.47;;;2.27;;
10150;SDS011;5116;52.318;4.644;2022-12-08T20:47:52;2.33;;;2.13;;
10150;SDS011;5116;52.318;4.644;2022-12-08T20:55:24;2.23;;;1.97;;
10150;SDS011;5116;52.318;4.644;2022-12-08T21:16:32;3.33;;;2.87;;
10150;SDS011;5116;52.318;4.644;2022-12-08T21:19:00;2.50;;;2.40;;
10150;SDS011;5116;52.318;4.644;2022-12-08T21:47:55;3.23;;;2.20;;
10150;SDS011;5116;52.318;4.644;2022-12-08T21:51:03;2.70;;;2.50;;
10150;SDS011;5116;52.318;4.644;2022-12-08T21:53:31;3.83;;;2.73;;
10150;SDS011;5116;52.318;4.644;2022-12-08T21:55:58;4.70;;;3.40;;